sensor_id;sensor_type;location;lat;lon;timestamp;pressure;altitude;pressure_sealevel;temperature;humidity
19553;BME280;9420;50.876;7.012;2022-11-15T00:00:56;100574.16;;;17.10;100.00
19553;BME280;9420;50.876;7.012;2022-11-15T00:03:27;100577.06;;;17.35;100.00
19553;BME280;9420;50.876;7.012;2022-11-15T00:05:54;100572.13;;;17.29;100.00
19553;BME280;9420;50.876;7.012;2022-11-15T00:08:21;100571.41;;;17.26;100.00
19553;BME280;9420;50.876;7.012;2022-11-15T00:10:55;100565.34;;;17.54;100.00
19553;BME280;9420;50.876;7.012;2022-11-15T00:13:23;100559.28;;;17.66;100.00
19553;BME280;9420;50.876;7.012;2022-11-15T00:15:50;100563.75;;;17.35;100.00
19553;BME280;9420;50.876;7.012;2022-11-15T00:18:18;100568.00;;;17.54;100.00
19553;BME280;9420;50.876;7.012;2022-11-15T00:20:45;100554.16;;;17.63;100.00
19553;BME280;9420;50.876;7.012;2022-11-15T00:23:12;100553.22;;;17.78;100.00
19553;BME280;9420;50.876;7.012;2022-11-15T00:25:39;100555.72;;;17.51;100.00
19553;BME280;9420;50.876;7.012;2022-11-15T00:28:06;100554.91;;;17.51;100.00
19553;BME280;9420;50.876;7.012;2022-11-15T00:30:35;100551.31;;;17.36;100.00
19553;BME280;9420;50.876;7.012;2022-11-15T00:33:02;100550.09;;;17.41;100.00
19553;BME280;9420;50.876;7.012;2022-11-15T00:35:32;100545.25;;;17.48;100.00
19553;BME280;9420;50.876;7.012;2022-11-15T00:37:59;100557.09;;;17.28;100.00
19553;BME280;9420;50.876;7.012;2022-11-15T00:40:27;100557.13;;;17.42;100.00
19553;BME280;9420;50.876;7.012;2022-11-15T00:42:54;100556.03;;;17.61;100.00
19553;BME280;9420;50.876;7.012;2022-11-15T00:45:21;100549.84;;;17.60;100.00
19553;BME280;9420;50.876;7.012;2022-11-15T00:47:50;100542.38;;;17.37;100.00
19553;BME280;9420;50.876;7.012;2022-11-15T00:50:18;100542.88;;;17.43;100.00
19553;BME280;9420;50.876;7.012;2022-11-15T00:52:45;100537.69;;;17.56;100.00
19553;BME280;9420;50.876;7.012;2022-11-15T00:55:15;100540.25;;;17.58;100.00
19553;BME280;9420;50.876;7.012;2022-11-15T00:57:43;100531.91;;;17.78;100.00
19553;BME280;9420;50.876;7.012;2022-11-15T01:00:11;100531.13;;;17.62;100.00
19553;BME280;9420;50.876;7.012;2022-11-15T01:02:39;100538.66;;;17.69;100.00
19553;BME280;9420;50.876;7.012;2022-11-15T01:05:08;100531.69;;;17.81;100.00
19553;BME280;9420;50.876;7.012;2022-11-15T01:07:35;100533.91;;;17.88;100.00
19553;BME280;9420;50.876;7.012;2022-11-15T01:10:02;100528.09;;;17.82;100.00
19553;BME280;9420;50.876;7.012;2022-11-15T01:12:30;100530.47;;;18.00;100.00
19553;BME280;9420;50.876;7.012;2022-11-15T01:14:57;100528.97;;;17.82;100.00
19553;BME280;9420;50.876;7.012;2022-11-15T01:17:24;100531.13;;;17.90;100.00
19553;BME280;9420;50.876;7.012;2022-11-15T01:19:51;100524.28;;;17.86;100.00
19553;BME280;9420;50.876;7.012;2022-11-15T01:22:20;100524.47;;;17.97;100.00
19553;BME280;9420;50.876;7.012;2022-11-15T01:24:49;100523.44;;;20.08;100.00
19553;BME280;9420;50.876;7.012;2022-11-15T01:27:16;100521.03;;;17.81;100.00
19553;BME280;9420;50.876;7.012;2022-11-15T01:29:43;100520.31;;;17.93;100.00
19553;BME280;9420;50.876;7.012;2022-11-15T01:32:10;100527.66;;;18.16;100.00
19553;BME280;9420;50.876;7.012;2022-11-15T01:34:37;100520.53;;;18.31;100.00
19553;BME280;9420;50.876;7.012;2022-11-15T01:37:04;100521.97;;;18.22;100.00
19553;BME280;9420;50.876;7.012;2022-11-15T01:39:33;100525.41;;;17.96;100.00
19553;BME280;9420;50.876;7.012;2022-11-15T01:42:00;100514.09;;;18.06;100.00
19553;BME280;9420;50.876;7.012;2022-11-15T01:44:43;100517.78;;;18.04;100.00
19553;BME280;9420;50.876;7.012;2022-11-15T01:47:17;100512.06;;;18.10;100.00
19553;BME280;9420;50.876;7.012;2022-11-15T01:49:53;100499.72;;;18.09;100.00
19553;BME280;9420;50.876;7.012;2022-11-15T01:52:25;100500.59;;;18.09;100.00
19553;BME280;9420;50.876;7.012;2022-11-15T01:55:01;100493.19;;;18.27;100.00
19553;BME280;9420;50.876;7.012;2022-11-15T01:57:29;100482.69;;;18.11;100.00
19553;BME280;9420;50.876;7.012;2022-11-15T01:59:58;100478.59;;;18.06;100.00
19553;BME280;9420;50.876;7.012;2022-11-15T02:02:26;100488.78;;;17.99;100.00
19553;BME280;9420;50.876;7.012;2022-11-15T02:04:54;100486.78;;;17.89;100.00
19553;BME280;9420;50.876;7.012;2022-11-15T02:07:22;100483.53;;;18.12;100.00
19553;BME280;9420;50.876;7.012;2022-11-15T02:09:50;100489.03;;;18.23;100.00
19553;BME280;9420;50.876;7.012;2022-11-15T02:12:21;100486.56;;;18.20;100.00
19553;BME280;9420;50.876;7.012;2022-11-15T02:14:54;100487.06;;;18.39;100.00
19553;BME280;9420;50.876;7.012;2022-11-15T02:17:50;100478.97;;;18.00;100.00
19553;BME280;9420;50.876;7.012;2022-11-15T02:20:56;100471.97;;;17.71;100.00
19553;BME280;9420;50.876;7.012;2022-11-15T02:24:14;100470.69;;;18.04;100.00
19553;BME280;9420;50.876;7.012;2022-11-15T02:30:33;100459.03;;;18.60;100.00
19553;BME280;9420;50.876;7.012;2022-11-15T02:33:16;100462.75;;;17.90;100.00
19553;BME280;9420;50.876;7.012;2022-11-15T02:35:57;100460.16;;;17.89;100.00
19553;BME280;9420;50.876;7.012;2022-11-15T02:38:34;100463.00;;;18.00;100.00
19553;BME280;9420;50.876;7.012;2022-11-15T02:41:10;100454.25;;;17.98;100.00
19553;BME280;9420;50.876;7.012;2022-11-15T02:43:46;100450.53;;;18.00;100.00
19553;BME280;9420;50.876;7.012;2022-11-15T02:46:31;100455.97;;;17.99;100.00
19553;BME280;9420;50.876;7.012;2022-11-15T02:49:18;100449.91;;;17.83;100.00
19553;BME280;9420;50.876;7.012;2022-11-15T02:51:49;100444.28;;;17.87;100.00
19553;BME280;9420;50.876;7.012;2022-11-15T02:54:21;100448.06;;;17.97;100.00
19553;BME280;9420;50.876;7.012;2022-11-15T02:56:51;100443.38;;;18.15;100.00
19553;BME280;9420;50.876;7.012;2022-11-15T02:59:58;100440.47;;;18.32;100.00
19553;BME280;9420;50.876;7.012;2022-11-15T03:02:47;100434.38;;;18.30;100.00
19553;BME280;9420;50.876;7.012;2022-11-15T03:05:30;100447.50;;;18.47;100.00
19553;BME280;9420;50.876;7.012;2022-11-15T03:08:10;100438.41;;;18.50;100.00
19553;BME280;9420;50.876;7.012;2022-11-15T03:10:47;100432.22;;;18.88;100.00
19553;BME280;9420;50.876;7.012;2022-11-15T03:13:26;100438.78;;;18.58;100.00
19553;BME280;9420;50.876;7.012;2022-11-15T03:16:03;100433.53;;;18.95;100.00
19553;BME280;9420;50.876;7.012;2022-11-15T03:18:35;100442.28;;;18.58;100.00
19553;BME280;9420;50.876;7.012;2022-11-15T03:21:08;100433.47;;;18.70;100.00
19553;BME280;9420;50.876;7.012;2022-11-15T03:23:38;100437.38;;;18.38;100.00
19553;BME280;9420;50.876;7.012;2022-11-15T03:26:11;100436.47;;;18.78;100.00
19553;BME280;9420;50.876;7.012;2022-11-15T03:28:47;100435.38;;;18.56;100.00
19553;BME280;9420;50.876;7.012;2022-11-15T03:31:18;100430.44;;;19.27;100.00
19553;BME280;9420;50.876;7.012;2022-11-15T03:34:11;100436.06;;;18.84;100.00
19553;BME280;9420;50.876;7.012;2022-11-15T03:36:41;100432.41;;;18.85;100.00
19553;BME280;9420;50.876;7.012;2022-11-15T03:39:10;100433.50;;;18.44;100.00
19553;BME280;9420;50.876;7.012;2022-11-15T03:41:45;100428.63;;;18.36;100.00
19553;BME280;9420;50.876;7.012;2022-11-15T03:44:21;100427.47;;;18.40;100.00
19553;BME280;9420;50.876;7.012;2022-11-15T03:47:01;100433.63;;;18.28;100.00
19553;BME280;9420;50.876;7.012;2022-11-15T03:49:34;100428.00;;;18.33;100.00
19553;BME280;9420;50.876;7.012;2022-11-15T03:52:04;100433.66;;;18.14;100.00
19553;BME280;9420;50.876;7.012;2022-11-15T03:54:32;100432.03;;;18.52;100.00
19553;BME280;9420;50.876;7.012;2022-11-15T03:56:59;100426.81;;;18.51;100.00
19553;BME280;9420;50.876;7.012;2022-11-15T03:59:26;100420.47;;;18.78;100.00
19553;BME280;9420;50.876;7.012;2022-11-15T04:01:53;100420.91;;;18.72;100.00
19553;BME280;9420;50.876;7.012;2022-11-15T04:04:20;100430.22;;;18.53;100.00
19553;BME280;9420;50.876;7.012;2022-11-15T04:06:48;100416.63;;;18.82;100.00
19553;BME280;9420;50.876;7.012;2022-11-15T04:09:15;100421.66;;;18.48;100.00
19553;BME280;9420;50.876;7.012;2022-11-15T04:11:42;100419.50;;;18.92;100.00
19553;BME280;9420;50.876;7.012;2022-11-15T04:14:09;100417.25;;;19.74;100.00
19553;BME280;9420;50.876;7.012;2022-11-15T04:16:36;100421.47;;;18.51;100.00
19553;BME280;9420;50.876;7.012;2022-11-15T04:19:03;100415.94;;;18.66;100.00
19553;BME280;9420;50.876;7.012;2022-11-15T04:22:04;100404.88;;;18.72;100.00
19553;BME280;9420;50.876;7.012;2022-11-15T04:24:48;100404.84;;;18.47;100.00
19553;BME280;9420;50.876;7.012;2022-11-15T04:27:15;100405.03;;;18.44;100.00
19553;BME280;9420;50.876;7.012;2022-11-15T04:29:42;100404.00;;;18.59;100.00
19553;BME280;9420;50.876;7.012;2022-11-15T04:32:09;100408.31;;;18.21;100.00
19553;BME280;9420;50.876;7.012;2022-11-15T04:34:36;100412.56;;;18.11;100.00
19553;BME280;9420;50.876;7.012;2022-11-15T04:37:07;100413.59;;;18.49;100.00
19553;BME280;9420;50.876;7.012;2022-11-15T04:39:43;100411.78;;;18.36;100.00
19553;BME280;9420;50.876;7.012;2022-11-15T04:42:10;100411.50;;;18.40;100.00
19553;BME280;9420;50.876;7.012;2022-11-15T04:44:37;100417.97;;;18.36;100.00
19553;BME280;9420;50.876;7.012;2022-11-15T04:47:04;100421.06;;;18.30;100.00
19553;BME280;9420;50.876;7.012;2022-11-15T04:49:31;100409.88;;;18.38;100.00
19553;BME280;9420;50.876;7.012;2022-11-15T04:51:59;100417.97;;;18.36;100.00
19553;BME280;9420;50.876;7.012;2022-11-15T04:54:27;100409.66;;;18.14;100.00
19553;BME280;9420;50.876;7.012;2022-11-15T04:56:54;100416.06;;;18.38;100.00
19553;BME280;9420;50.876;7.012;2022-11-15T04:59:21;100416.47;;;18.05;100.00
19553;BME280;9420;50.876;7.012;2022-11-15T05:01:48;100422.16;;;18.13;100.00
19553;BME280;9420;50.876;7.012;2022-11-15T05:04:15;100417.97;;;18.36;100.00
19553;BME280;9420;50.876;7.012;2022-11-15T05:06:51;100424.06;;;18.38;100.00
19553;BME280;9420;50.876;7.012;2022-11-15T05:09:19;100426.03;;;18.22;100.00
19553;BME280;9420;50.876;7.012;2022-11-15T05:11:48;100414.75;;;18.31;100.00
19553;BME280;9420;50.876;7.012;2022-11-15T05:14:15;100421.69;;;18.34;100.00
19553;BME280;9420;50.876;7.012;2022-11-15T05:16:43;100419.66;;;18.37;100.00
19553;BME280;9420;50.876;7.012;2022-11-15T05:19:10;100415.75;;;18.16;100.00
19553;BME280;9420;50.876;7.012;2022-11-15T05:21:37;100418.56;;;18.27;100.00
19553;BME280;9420;50.876;7.012;2022-11-15T05:24:05;100415.56;;;18.19;100.00
19553;BME280;9420;50.876;7.012;2022-11-15T05:26:32;100416.56;;;18.04;100.00
19553;BME280;9420;50.876;7.012;2022-11-15T05:29:01;100411.41;;;18.15;100.00
19553;BME280;9420;50.876;7.012;2022-11-15T05:31:28;100415.66;;;17.91;100.00
19553;BME280;9420;50.876;7.012;2022-11-15T05:33:58;100416.78;;;18.01;100.00
19553;BME280;9420;50.876;7.012;2022-11-15T05:36:33;100419.63;;;17.98;100.00
19553;BME280;9420;50.876;7.012;2022-11-15T05:39:03;100426.75;;;17.97;100.00
19553;BME280;9420;50.876;7.012;2022-11-15T05:41:35;100424.19;;;17.96;100.00
19553;BME280;9420;50.876;7.012;2022-11-15T05:44:07;100426.91;;;17.82;100.00
19553;BME280;9420;50.876;7.012;2022-11-15T05:46:39;100421.34;;;17.85;100.00
19553;BME280;9420;50.876;7.012;2022-11-15T05:49:13;100419.13;;;17.65;100.00
19553;BME280;9420;50.876;7.012;2022-11-15T05:51:43;100412.47;;;17.58;100.00
19553;BME280;9420;50.876;7.012;2022-11-15T05:54:11;100420.06;;;17.50;100.00
19553;BME280;9420;50.876;7.012;2022-11-15T05:56:39;100407.88;;;17.45;100.00
19553;BME280;9420;50.876;7.012;2022-11-15T05:59:09;100418.16;;;17.37;100.00
19553;BME280;9420;50.876;7.012;2022-11-15T06:01:37;100421.84;;;17.35;100.00
19553;BME280;9420;50.876;7.012;2022-11-15T06:04:05;100431.84;;;17.60;100.00
19553;BME280;9420;50.876;7.012;2022-11-15T06:06:32;100421.00;;;17.34;100.00
19553;BME280;9420;50.876;7.012;2022-11-15T06:08:59;100429.94;;;17.33;100.00
19553;BME280;9420;50.876;7.012;2022-11-15T06:11:26;100432.13;;;17.41;100.00
19553;BME280;9420;50.876;7.012;2022-11-15T06:13:53;100429.47;;;17.41;100.00
19553;BME280;9420;50.876;7.012;2022-11-15T06:16:22;100439.47;;;17.52;100.00
19553;BME280;9420;50.876;7.012;2022-11-15T06:18:49;100445.63;;;18.21;100.00
19553;BME280;9420;50.876;7.012;2022-11-15T06:21:16;100434.41;;;19.34;100.00
19553;BME280;9420;50.876;7.012;2022-11-15T06:23:43;100440.56;;;19.22;100.00
19553;BME280;9420;50.876;7.012;2022-11-15T06:26:10;100446.03;;;19.33;100.00
19553;BME280;9420;50.876;7.012;2022-11-15T06:28:37;100451.59;;;19.55;100.00
19553;BME280;9420;50.876;7.012;2022-11-15T06:31:06;100451.13;;;18.59;100.00
19553;BME280;9420;50.876;7.012;2022-11-15T06:33:35;100466.22;;;17.20;100.00
19553;BME280;9420;50.876;7.012;2022-11-15T06:36:04;100463.84;;;17.16;100.00
19553;BME280;9420;50.876;7.012;2022-11-15T06:38:31;100462.94;;;16.87;100.00
19553;BME280;9420;50.876;7.012;2022-11-15T06:41:02;100467.16;;;17.05;100.00
19553;BME280;9420;50.876;7.012;2022-11-15T06:43:30;100466.75;;;16.97;100.00
19553;BME280;9420;50.876;7.012;2022-11-15T06:45:58;100463.81;;;16.88;100.00
19553;BME280;9420;50.876;7.012;2022-11-15T06:48:25;100471.91;;;17.00;100.00
19553;BME280;9420;50.876;7.012;2022-11-15T06:50:56;100476.25;;;17.01;100.00
19553;BME280;9420;50.876;7.012;2022-11-15T06:53:24;100479.06;;;16.84;100.00
19553;BME280;9420;50.876;7.012;2022-11-15T06:55:52;100478.50;;;16.79;100.00
19553;BME280;9420;50.876;7.012;2022-11-15T06:58:21;100471.66;;;16.75;100.00
19553;BME280;9420;50.876;7.012;2022-11-15T07:00:48;100474.09;;;16.78;100.00
19553;BME280;9420;50.876;7.012;2022-11-15T07:03:15;100473.16;;;16.79;100.00
19553;BME280;9420;50.876;7.012;2022-11-15T07:05:50;100468.97;;;16.75;100.00
19553;BME280;9420;50.876;7.012;2022-11-15T07:08:21;100478.59;;;16.78;100.00
19553;BME280;9420;50.876;7.012;2022-11-15T07:10:49;100481.69;;;16.70;100.00
19553;BME280;9420;50.876;7.012;2022-11-15T07:13:16;100483.22;;;16.74;100.00
19553;BME280;9420;50.876;7.012;2022-11-15T07:15:43;100478.09;;;16.71;100.00
19553;BME280;9420;50.876;7.012;2022-11-15T07:18:10;100493.19;;;16.55;100.00
19553;BME280;9420;50.876;7.012;2022-11-15T07:20:37;100490.16;;;16.77;100.00
19553;BME280;9420;50.876;7.012;2022-11-15T07:23:05;100496.28;;;16.63;100.00
19553;BME280;9420;50.876;7.012;2022-11-15T07:25:34;100492.16;;;16.73;100.00
19553;BME280;9420;50.876;7.012;2022-11-15T07:28:02;100491.59;;;16.82;100.00
19553;BME280;9420;50.876;7.012;2022-11-15T07:30:29;100492.03;;;16.90;100.00
19553;BME280;9420;50.876;7.012;2022-11-15T07:32:58;100496.81;;;17.13;100.00
19553;BME280;9420;50.876;7.012;2022-11-15T07:35:27;100494.94;;;17.43;100.00
19553;BME280;9420;50.876;7.012;2022-11-15T07:37:57;100497.03;;;17.38;100.00
19553;BME280;9420;50.876;7.012;2022-11-15T07:40:25;100502.16;;;17.27;100.00
19553;BME280;9420;50.876;7.012;2022-11-15T07:42:59;100496.84;;;17.41;100.00
19553;BME280;9420;50.876;7.012;2022-11-15T07:45:26;100508.34;;;17.28;100.00
19553;BME280;9420;50.876;7.012;2022-11-15T07:47:54;100515.28;;;17.30;100.00
19553;BME280;9420;50.876;7.012;2022-11-15T07:50:23;100510.09;;;18.93;100.00
19553;BME280;9420;50.876;7.012;2022-11-15T07:52:54;100508.88;;;19.12;100.00
19553;BME280;9420;50.876;7.012;2022-11-15T07:55:22;100518.72;;;18.17;100.00
19553;BME280;9420;50.876;7.012;2022-11-15T07:57:50;100520.59;;;17.30;100.00
19553;BME280;9420;50.876;7.012;2022-11-15T08:00:19;100511.25;;;17.67;100.00
19553;BME280;9420;50.876;7.012;2022-11-15T08:02:46;100507.91;;;17.64;100.00
19553;BME280;9420;50.876;7.012;2022-11-15T08:05:14;100505.84;;;17.69;100.00
19553;BME280;9420;50.876;7.012;2022-11-15T08:07:41;100504.44;;;17.63;100.00
19553;BME280;9420;50.876;7.012;2022-11-15T08:10:08;100502.97;;;17.86;100.00
19553;BME280;9420;50.876;7.012;2022-11-15T08:12:37;100502.63;;;17.78;100.00
19553;BME280;9420;50.876;7.012;2022-11-15T08:15:05;100493.09;;;17.74;100.00
19553;BME280;9420;50.876;7.012;2022-11-15T08:17:34;100495.84;;;17.58;100.00
19553;BME280;9420;50.876;7.012;2022-11-15T08:20:01;100492.53;;;17.55;100.00
19553;BME280;9420;50.876;7.012;2022-11-15T08:22:29;100496.69;;;17.73;100.00
19553;BME280;9420;50.876;7.012;2022-11-15T08:24:56;100502.59;;;17.64;100.00
19553;BME280;9420;50.876;7.012;2022-11-15T08:27:23;100506.41;;;17.60;100.00
19553;BME280;9420;50.876;7.012;2022-11-15T08:29:50;100495.38;;;17.80;100.00
19553;BME280;9420;50.876;7.012;2022-11-15T08:32:17;100493.44;;;17.96;100.00
19553;BME280;9420;50.876;7.012;2022-11-15T08:34:46;100488.72;;;18.27;100.00
19553;BME280;9420;50.876;7.012;2022-11-15T08:37:13;100489.84;;;17.97;100.00
19553;BME280;9420;50.876;7.012;2022-11-15T08:39:40;100493.28;;;17.99;100.00
19553;BME280;9420;50.876;7.012;2022-11-15T08:42:07;100489.63;;;18.00;100.00
19553;BME280;9420;50.876;7.012;2022-11-15T08:44:34;100487.56;;;18.32;100.00
19553;BME280;9420;50.876;7.012;2022-11-15T08:47:01;100478.72;;;18.84;100.00
19553;BME280;9420;50.876;7.012;2022-11-15T08:49:28;100476.44;;;18.25;100.00
19553;BME280;9420;50.876;7.012;2022-11-15T08:51:56;100477.00;;;18.83;100.00
19553;BME280;9420;50.876;7.012;2022-11-15T08:54:23;100474.69;;;18.91;100.00
19553;BME280;9420;50.876;7.012;2022-11-15T08:56:50;100461.00;;;18.83;100.00
19553;BME280;9420;50.876;7.012;2022-11-15T08:59:17;100469.56;;;18.88;100.00
19553;BME280;9420;50.876;7.012;2022-11-15T09:01:44;100467.66;;;18.90;100.00
19553;BME280;9420;50.876;7.012;2022-11-15T09:04:11;100470.19;;;18.92;100.00
19553;BME280;9420;50.876;7.012;2022-11-15T09:06:39;100466.81;;;19.02;100.00
19553;BME280;9420;50.876;7.012;2022-11-15T09:09:07;100461.03;;;19.09;100.00
19553;BME280;9420;50.876;7.012;2022-11-15T09:11:34;100471.69;;;18.83;100.00
19553;BME280;9420;50.876;7.012;2022-11-15T09:14:02;100460.22;;;19.08;100.00
19553;BME280;9420;50.876;7.012;2022-11-15T09:16:30;100456.16;;;19.15;100.00
19553;BME280;9420;50.876;7.012;2022-11-15T09:18:57;100458.59;;;19.06;100.00
19553;BME280;9420;50.876;7.012;2022-11-15T09:21:24;100448.75;;;19.06;100.00
19553;BME280;9420;50.876;7.012;2022-11-15T09:23:52;100444.19;;;18.95;100.00
19553;BME280;9420;50.876;7.012;2022-11-15T09:26:20;100450.41;;;19.34;100.00
19553;BME280;9420;50.876;7.012;2022-11-15T09:28:47;100449.00;;;19.16;100.00
19553;BME280;9420;50.876;7.012;2022-11-15T09:31:15;100440.38;;;19.25;100.00
19553;BME280;9420;50.876;7.012;2022-11-15T09:33:44;100439.53;;;19.37;100.00
19553;BME280;9420;50.876;7.012;2022-11-15T09:36:12;100447.38;;;19.00;100.00
19553;BME280;9420;50.876;7.012;2022-11-15T09:38:39;100440.13;;;19.28;100.00
19553;BME280;9420;50.876;7.012;2022-11-15T09:41:58;100441.00;;;19.66;100.00
19553;BME280;9420;50.876;7.012;2022-11-15T09:44:45;100435.53;;;19.17;100.00
19553;BME280;9420;50.876;7.012;2022-11-15T09:47:41;100430.75;;;19.60;100.00
19553;BME280;9420;50.876;7.012;2022-11-15T09:50:17;100427.53;;;19.04;100.00
19553;BME280;9420;50.876;7.012;2022-11-15T09:52:47;100420.72;;;19.26;100.00
19553;BME280;9420;50.876;7.012;2022-11-15T09:55:15;100416.25;;;19.51;100.00
19553;BME280;9420;50.876;7.012;2022-11-15T09:58:00;100409.97;;;19.89;99.42
19553;BME280;9420;50.876;7.012;2022-11-15T10:00:35;100407.59;;;19.84;98.87
19553;BME280;9420;50.876;7.012;2022-11-15T10:03:12;100405.31;;;19.29;98.08
19553;BME280;9420;50.876;7.012;2022-11-15T10:05:43;100395.69;;;19.77;98.99
19553;BME280;9420;50.876;7.012;2022-11-15T10:08:25;100381.88;;;19.34;97.67
19553;BME280;9420;50.876;7.012;2022-11-15T10:10:58;100374.34;;;20.24;95.08
19553;BME280;9420;50.876;7.012;2022-11-15T10:13:33;100369.72;;;20.03;93.52
19553;BME280;9420;50.876;7.012;2022-11-15T10:16:13;100367.97;;;20.14;92.71
19553;BME280;9420;50.876;7.012;2022-11-15T10:18:52;100368.16;;;20.11;92.02
19553;BME280;9420;50.876;7.012;2022-11-15T10:21:32;100373.34;;;20.38;91.10
19553;BME280;9420;50.876;7.012;2022-11-15T10:24:12;100363.91;;;20.09;92.03
19553;BME280;9420;50.876;7.012;2022-11-15T10:26:46;100353.41;;;19.71;89.33
19553;BME280;9420;50.876;7.012;2022-11-15T10:29:19;100346.19;;;20.31;85.92
19553;BME280;9420;50.876;7.012;2022-11-15T10:31:47;100351.91;;;19.91;84.68
19553;BME280;9420;50.876;7.012;2022-11-15T10:34:17;100351.97;;;20.02;82.61
19553;BME280;9420;50.876;7.012;2022-11-15T10:36:46;100348.72;;;20.09;80.70
19553;BME280;9420;50.876;7.012;2022-11-15T10:39:20;100352.97;;;20.24;79.27
19553;BME280;9420;50.876;7.012;2022-11-15T10:41:47;100352.69;;;19.80;81.14
19553;BME280;9420;50.876;7.012;2022-11-15T10:44:23;100353.16;;;19.74;79.17
19553;BME280;9420;50.876;7.012;2022-11-15T10:47:20;100343.34;;;19.98;76.72
19553;BME280;9420;50.876;7.012;2022-11-15T10:50:02;100339.56;;;20.01;74.38
19553;BME280;9420;50.876;7.012;2022-11-15T10:52:32;100327.34;;;20.09;76.53
19553;BME280;9420;50.876;7.012;2022-11-15T10:55:12;100330.34;;;21.09;75.04
19553;BME280;9420;50.876;7.012;2022-11-15T10:57:51;100334.91;;;20.96;72.26
19553;BME280;9420;50.876;7.012;2022-11-15T11:00:33;100323.34;;;20.38;73.26
19553;BME280;9420;50.876;7.012;2022-11-15T11:03:04;100327.06;;;20.59;74.03
19553;BME280;9420;50.876;7.012;2022-11-15T11:05:35;100323.72;;;20.10;72.55
19553;BME280;9420;50.876;7.012;2022-11-15T11:08:09;100323.91;;;20.54;72.26
19553;BME280;9420;50.876;7.012;2022-11-15T11:10:52;100309.03;;;19.92;72.46
19553;BME280;9420;50.876;7.012;2022-11-15T11:13:24;100306.66;;;20.70;71.90
19553;BME280;9420;50.876;7.012;2022-11-15T11:16:19;100311.09;;;21.48;70.19
19553;BME280;9420;50.876;7.012;2022-11-15T11:18:56;100310.97;;;22.03;69.34
19553;BME280;9420;50.876;7.012;2022-11-15T11:21:36;100312.81;;;22.03;67.73
19553;BME280;9420;50.876;7.012;2022-11-15T11:24:17;100308.28;;;21.50;68.21
19553;BME280;9420;50.876;7.012;2022-11-15T11:27:14;100299.88;;;21.54;65.51
19553;BME280;9420;50.876;7.012;2022-11-15T11:30:02;100289.94;;;22.20;64.70
19553;BME280;9420;50.876;7.012;2022-11-15T11:32:55;100281.25;;;24.74;60.21
19553;BME280;9420;50.876;7.012;2022-11-15T11:35:32;100273.53;;;26.32;53.10
19553;BME280;9420;50.876;7.012;2022-11-15T11:38:17;100266.16;;;26.60;50.75
19553;BME280;9420;50.876;7.012;2022-11-15T11:41:02;100266.06;;;26.09;50.28
19553;BME280;9420;50.876;7.012;2022-11-15T11:43:39;100263.28;;;26.00;49.79
19553;BME280;9420;50.876;7.012;2022-11-15T11:46:25;100259.09;;;27.60;48.07
19553;BME280;9420;50.876;7.012;2022-11-15T11:49:07;100252.44;;;28.28;45.77
19553;BME280;9420;50.876;7.012;2022-11-15T11:51:42;100246.66;;;28.72;42.64
19553;BME280;9420;50.876;7.012;2022-11-15T11:54:17;100252.88;;;27.26;43.96
19553;BME280;9420;50.876;7.012;2022-11-15T11:56:48;100251.09;;;28.08;44.17
19553;BME280;9420;50.876;7.012;2022-11-15T11:59:23;100253.53;;;25.28;48.22
19553;BME280;9420;50.876;7.012;2022-11-15T12:01:55;100266.47;;;23.44;53.75
19553;BME280;9420;50.876;7.012;2022-11-15T12:04:30;100260.84;;;23.17;55.47
19553;BME280;9420;50.876;7.012;2022-11-15T12:07:02;100245.19;;;23.71;54.17
19553;BME280;9420;50.876;7.012;2022-11-15T12:09:36;100231.72;;;24.28;55.08
19553;BME280;9420;50.876;7.012;2022-11-15T12:12:12;100226.28;;;24.57;55.73
19553;BME280;9420;50.876;7.012;2022-11-15T12:14:48;100227.94;;;24.12;58.40
19553;BME280;9420;50.876;7.012;2022-11-15T12:17:24;100216.16;;;23.75;56.47
19553;BME280;9420;50.876;7.012;2022-11-15T12:19:57;100216.59;;;23.11;56.25
19553;BME280;9420;50.876;7.012;2022-11-15T12:22:38;100218.81;;;22.97;58.37
19553;BME280;9420;50.876;7.012;2022-11-15T12:25:16;100213.81;;;23.32;59.94
19553;BME280;9420;50.876;7.012;2022-11-15T12:27:51;100218.31;;;23.12;60.80
19553;BME280;9420;50.876;7.012;2022-11-15T12:30:23;100203.47;;;22.78;62.40
19553;BME280;9420;50.876;7.012;2022-11-15T12:32:54;100209.72;;;22.78;64.01
19553;BME280;9420;50.876;7.012;2022-11-15T12:35:35;100204.19;;;22.80;62.84
19553;BME280;9420;50.876;7.012;2022-11-15T12:38:04;100204.28;;;22.69;65.13
19553;BME280;9420;50.876;7.012;2022-11-15T12:40:35;100196.31;;;22.58;67.02
19553;BME280;9420;50.876;7.012;2022-11-15T12:43:37;100185.00;;;22.84;69.63
19553;BME280;9420;50.876;7.012;2022-11-15T12:46:11;100180.97;;;21.66;67.16
19553;BME280;9420;50.876;7.012;2022-11-15T12:48:54;100172.97;;;21.87;67.18
19553;BME280;9420;50.876;7.012;2022-11-15T12:52:05;100159.72;;;22.87;66.42
19553;BME280;9420;50.876;7.012;2022-11-15T12:54:58;100171.41;;;22.76;70.44
19553;BME280;9420;50.876;7.012;2022-11-15T12:57:41;100144.19;;;23.00;73.13
19553;BME280;9420;50.876;7.012;2022-11-15T13:00:44;100144.81;;;22.64;76.27
19553;BME280;9420;50.876;7.012;2022-11-15T13:03:33;100139.66;;;22.91;77.86
19553;BME280;9420;50.876;7.012;2022-11-15T13:06:09;100141.16;;;22.44;79.29
19553;BME280;9420;50.876;7.012;2022-11-15T13:08:57;100137.84;;;22.31;80.54
19553;BME280;9420;50.876;7.012;2022-11-15T13:11:52;100136.47;;;22.67;79.60
19553;BME280;9420;50.876;7.012;2022-11-15T13:14:48;100120.34;;;23.26;74.61
19553;BME280;9420;50.876;7.012;2022-11-15T13:17:35;100134.25;;;22.72;77.07
19553;BME280;9420;50.876;7.012;2022-11-15T13:20:25;100128.50;;;22.56;78.57
19553;BME280;9420;50.876;7.012;2022-11-15T13:23:02;100126.09;;;22.53;79.34
19553;BME280;9420;50.876;7.012;2022-11-15T13:26:12;100117.31;;;22.21;81.24